Main page
METAR-TAF:

METAR-TAF

Airports :

São Pedro da Aldeia, Rio de Janeiro, Brazil

latitude: 22-49S, longitude: 042-06W, elevation: 10 m

Current weather observation

The report was made 1 hour and 30 minutes ago, at 16:00 UTC
Wind 15 kt from the Southwest, varying between South/Southwest and West
Temperature 27°C
Humidity 70%
Pressure 1009 hPa
Visibility 10 km or more
Few clouds at a height of 2000 ft
Scattered clouds at a height of 5000 ft
showers in vicinity

METAR: SBES 251600Z 23015KT 200V260 9999 VCSH FEW020 SCT050 27/21 Q1009

Time: 14:30 (17:30 UTC)


TAF: missing

Weather observations and forecasts of more than 4000 airports (METAR and TAF reports).

The available stations are represented by yellow and red dots on the map.

Hover mouse over dot to see the name of the station.

Then click to see weather observations and forecasts.

To change the map : click on the green buttons with a black cross to zoom in, on the green button with a dash to zoom out, or on the green arrows for adjacent maps.


METAR-TAF: